Terminal Aerodrome Forecast
Issued by NWS

Home | Current Version | Previous Version | Graphics & Text | Print | Product List | Glossary On
Versions: 1 2 3 4 5 6 7 8 9 10 11 12 13 14
000
FTUS42 KMHX 261739
TAFPGV
TAF
KPGV 261739Z 2618/2718 24009KT P6SM FEW050 FEW250
     FM270000 22005KT P6SM VCTS SCT050CB SCT250
     FM270300 VRB04KT P6SM SCT050 SCT200
      AMD LTD TO CLD VIS AND WIND=

USA.gov is the U.S. government's official web portal to all federal, state and local government web resources and services.